sensor_id;sensor_type;location;lat;lon;timestamp;temperature;humidity
8402;DHT22;4238;48.404;9.498;2023-07-08T04:02:41;16.50;1.00
8402;DHT22;4238;48.404;9.498;2023-07-08T04:05:13;16.50;99.90
8402;DHT22;4238;48.404;9.498;2023-07-08T04:07:39;16.60;99.90
8402;DHT22;4238;48.404;9.498;2023-07-08T04:10:07;16.50;99.90
8402;DHT22;4238;48.404;9.498;2023-07-08T04:12:34;16.60;1.00
8402;DHT22;4238;48.404;9.498;2023-07-08T04:15:01;16.70;1.00
8402;DHT22;4238;48.404;9.498;2023-07-08T04:17:28;16.80;99.90
8402;DHT22;4238;48.404;9.498;2023-07-08T04:19:57;16.70;1.00
8402;DHT22;4238;48.404;9.498;2023-07-08T04:22:23;16.80;99.90
8402;DHT22;4238;48.404;9.498;2023-07-08T04:24:50;17.00;99.90
8402;DHT22;4238;48.404;9.498;2023-07-08T04:27:17;17.10;1.00
8402;DHT22;4238;48.404;9.498;2023-07-08T04:29:44;17.10;1.00
8402;DHT22;4238;48.404;9.498;2023-07-08T04:32:11;17.20;28.90
8402;DHT22;4238;48.404;9.498;2023-07-08T04:34:38;17.30;1.00
8402;DHT22;4238;48.404;9.498;2023-07-08T04:37:08;17.50;1.00
8402;DHT22;4238;48.404;9.498;2023-07-08T04:39:35;17.50;99.90
8402;DHT22;4238;48.404;9.498;2023-07-08T04:42:02;17.40;99.90
8402;DHT22;4238;48.404;9.498;2023-07-08T04:44:30;17.40;1.00
8402;DHT22;4238;48.404;9.498;2023-07-08T04:46:58;17.40;99.90
8402;DHT22;4238;48.404;9.498;2023-07-08T04:49:25;17.40;1.00
8402;DHT22;4238;48.404;9.498;2023-07-08T04:51:57;17.50;1.00
8402;DHT22;4238;48.404;9.498;2023-07-08T04:54:25;17.60;99.90
8402;DHT22;4238;48.404;9.498;2023-07-08T04:56:52;17.70;1.00
8402;DHT22;4238;48.404;9.498;2023-07-08T04:59:22;17.90;49.50
8402;DHT22;4238;48.404;9.498;2023-07-08T05:01:50;18.20;99.90
8402;DHT22;4238;48.404;9.498;2023-07-08T05:04:19;18.40;1.00
8402;DHT22;4238;48.404;9.498;2023-07-08T05:06:46;18.80;1.00
8402;DHT22;4238;48.404;9.498;2023-07-08T05:09:13;19.00;1.00
8402;DHT22;4238;48.404;9.498;2023-07-08T05:11:41;19.20;71.90
8402;DHT22;4238;48.404;9.498;2023-07-08T05:14:08;19.40;1.00
8402;DHT22;4238;48.404;9.498;2023-07-08T05:16:35;19.40;1.00
8402;DHT22;4238;48.404;9.498;2023-07-08T05:19:02;19.50;99.90
8402;DHT22;4238;48.404;9.498;2023-07-08T05:21:30;19.50;1.00
8402;DHT22;4238;48.404;9.498;2023-07-08T05:23:59;19.40;99.90
8402;DHT22;4238;48.404;9.498;2023-07-08T05:26:26;19.40;1.00
8402;DHT22;4238;48.404;9.498;2023-07-08T05:28:54;19.30;1.00
8402;DHT22;4238;48.404;9.498;2023-07-08T05:31:21;19.30;1.00
8402;DHT22;4238;48.404;9.498;2023-07-08T05:33:47;19.30;99.90
8402;DHT22;4238;48.404;9.498;2023-07-08T05:36:14;19.30;99.90
8402;DHT22;4238;48.404;9.498;2023-07-08T05:38:41;19.20;99.90
8402;DHT22;4238;48.404;9.498;2023-07-08T05:41:08;19.20;1.00
8402;DHT22;4238;48.404;9.498;2023-07-08T05:43:35;19.20;99.90
8402;DHT22;4238;48.404;9.498;2023-07-08T05:46:03;19.20;99.90
8402;DHT22;4238;48.404;9.498;2023-07-08T05:48:30;19.10;1.00
8402;DHT22;4238;48.404;9.498;2023-07-08T05:50:57;19.10;99.90
8402;DHT22;4238;48.404;9.498;2023-07-08T05:53:24;19.30;1.00
8402;DHT22;4238;48.404;9.498;2023-07-08T05:55:51;19.20;99.90
8402;DHT22;4238;48.404;9.498;2023-07-08T05:58:18;19.20;1.00
8402;DHT22;4238;48.404;9.498;2023-07-08T06:00:45;19.20;99.90
8402;DHT22;4238;48.404;9.498;2023-07-08T06:03:13;19.30;1.00
8402;DHT22;4238;48.404;9.498;2023-07-08T06:05:40;19.30;1.00
8402;DHT22;4238;48.404;9.498;2023-07-08T06:08:07;19.30;1.00
8402;DHT22;4238;48.404;9.498;2023-07-08T06:10:34;19.30;1.00
8402;DHT22;4238;48.404;9.498;2023-07-08T06:13:01;19.30;1.00
8402;DHT22;4238;48.404;9.498;2023-07-08T06:15:28;19.40;1.00
8402;DHT22;4238;48.404;9.498;2023-07-08T06:17:55;19.40;1.00
8402;DHT22;4238;48.404;9.498;2023-07-08T06:20:27;19.50;99.90
8402;DHT22;4238;48.404;9.498;2023-07-08T06:22:55;19.60;1.00
8402;DHT22;4238;48.404;9.498;2023-07-08T06:25:22;19.70;1.00
8402;DHT22;4238;48.404;9.498;2023-07-08T06:27:49;19.80;99.90
8402;DHT22;4238;48.404;9.498;2023-07-08T06:30:15;19.90;95.50
8402;DHT22;4238;48.404;9.498;2023-07-08T06:32:42;20.00;1.00
8402;DHT22;4238;48.404;9.498;2023-07-08T06:35:09;20.10;1.00
8402;DHT22;4238;48.404;9.498;2023-07-08T06:37:37;20.20;1.00
8402;DHT22;4238;48.404;9.498;2023-07-08T06:40:05;20.20;99.90
8402;DHT22;4238;48.404;9.498;2023-07-08T06:42:32;20.30;99.90
8402;DHT22;4238;48.404;9.498;2023-07-08T06:44:59;20.20;1.00
8402;DHT22;4238;48.404;9.498;2023-07-08T06:47:26;20.20;1.00
8402;DHT22;4238;48.404;9.498;2023-07-08T06:49:53;20.30;1.00
8402;DHT22;4238;48.404;9.498;2023-07-08T06:52:20;20.20;99.90
8402;DHT22;4238;48.404;9.498;2023-07-08T06:54:48;20.30;99.90
8402;DHT22;4238;48.404;9.498;2023-07-08T06:57:15;20.30;1.00
8402;DHT22;4238;48.404;9.498;2023-07-08T06:59:42;20.20;99.90
8402;DHT22;4238;48.404;9.498;2023-07-08T07:02:08;20.20;99.90
8402;DHT22;4238;48.404;9.498;2023-07-08T07:04:35;20.30;99.90
8402;DHT22;4238;48.404;9.498;2023-07-08T07:07:03;20.30;99.90
8402;DHT22;4238;48.404;9.498;2023-07-08T07:09:30;20.30;99.90
8402;DHT22;4238;48.404;9.498;2023-07-08T07:11:58;20.40;99.90
8402;DHT22;4238;48.404;9.498;2023-07-08T07:14:25;20.50;92.60
8402;DHT22;4238;48.404;9.498;2023-07-08T07:16:51;20.50;99.90
8402;DHT22;4238;48.404;9.498;2023-07-08T07:19:18;20.40;13.50
8402;DHT22;4238;48.404;9.498;2023-07-08T07:21:47;20.50;52.70
8402;DHT22;4238;48.404;9.498;2023-07-08T07:24:13;20.60;1.00
8402;DHT22;4238;48.404;9.498;2023-07-08T07:26:40;20.60;99.90
8402;DHT22;4238;48.404;9.498;2023-07-08T07:29:09;20.70;38.50
8402;DHT22;4238;48.404;9.498;2023-07-08T07:31:36;20.50;20.80
8402;DHT22;4238;48.404;9.498;2023-07-08T07:34:05;20.60;99.90
8402;DHT22;4238;48.404;9.498;2023-07-08T07:36:32;20.60;99.90
8402;DHT22;4238;48.404;9.498;2023-07-08T07:38:59;20.60;1.00
8402;DHT22;4238;48.404;9.498;2023-07-08T07:41:26;20.70;99.90
8402;DHT22;4238;48.404;9.498;2023-07-08T07:43:53;20.80;1.00
8402;DHT22;4238;48.404;9.498;2023-07-08T07:46:21;20.60;1.00
8402;DHT22;4238;48.404;9.498;2023-07-08T07:48:48;20.50;1.00
8402;DHT22;4238;48.404;9.498;2023-07-08T07:51:15;20.50;1.00
8402;DHT22;4238;48.404;9.498;2023-07-08T07:53:42;20.50;1.00
8402;DHT22;4238;48.404;9.498;2023-07-08T07:56:09;20.50;1.00
8402;DHT22;4238;48.404;9.498;2023-07-08T07:58:36;20.40;1.00
8402;DHT22;4238;48.404;9.498;2023-07-08T08:01:02;20.50;1.00
8402;DHT22;4238;48.404;9.498;2023-07-08T08:03:31;20.70;1.00
8402;DHT22;4238;48.404;9.498;2023-07-08T08:05:57;20.80;1.00
8402;DHT22;4238;48.404;9.498;2023-07-08T08:08:24;20.90;1.00
8402;DHT22;4238;48.404;9.498;2023-07-08T08:10:51;21.00;99.90
8402;DHT22;4238;48.404;9.498;2023-07-08T08:13:18;21.10;1.00
8402;DHT22;4238;48.404;9.498;2023-07-08T08:15:45;21.20;1.00
8402;DHT22;4238;48.404;9.498;2023-07-08T08:18:12;21.30;1.00
8402;DHT22;4238;48.404;9.498;2023-07-08T08:20:40;21.40;1.00
8402;DHT22;4238;48.404;9.498;2023-07-08T08:23:07;21.40;1.00
8402;DHT22;4238;48.404;9.498;2023-07-08T08:25:34;21.50;1.00
8402;DHT22;4238;48.404;9.498;2023-07-08T08:28:00;21.70;1.00
8402;DHT22;4238;48.404;9.498;2023-07-08T08:30:27;21.90;1.00
8402;DHT22;4238;48.404;9.498;2023-07-08T08:32:54;22.00;1.00
8402;DHT22;4238;48.404;9.498;2023-07-08T08:35:21;22.10;1.00
8402;DHT22;4238;48.404;9.498;2023-07-08T08:37:49;22.00;99.90
8402;DHT22;4238;48.404;9.498;2023-07-08T08:40:18;22.10;99.90
8402;DHT22;4238;48.404;9.498;2023-07-08T08:42:50;22.10;99.90
8402;DHT22;4238;48.404;9.498;2023-07-08T08:45:19;22.20;99.90
8402;DHT22;4238;48.404;9.498;2023-07-08T08:47:53;22.20;99.90
8402;DHT22;4238;48.404;9.498;2023-07-08T08:50:28;22.00;99.90
8402;DHT22;4238;48.404;9.498;2023-07-08T08:52:59;22.10;99.90
8402;DHT22;4238;48.404;9.498;2023-07-08T08:55:26;22.10;99.90
8402;DHT22;4238;48.404;9.498;2023-07-08T08:58:01;22.20;49.40
8402;DHT22;4238;48.404;9.498;2023-07-08T09:00:45;22.20;99.90
8402;DHT22;4238;48.404;9.498;2023-07-08T09:03:16;22.40;99.90
8402;DHT22;4238;48.404;9.498;2023-07-08T09:05:45;22.50;99.90
8402;DHT22;4238;48.404;9.498;2023-07-08T09:08:18;22.60;99.90
8402;DHT22;4238;48.404;9.498;2023-07-08T09:10:51;22.50;1.00
8402;DHT22;4238;48.404;9.498;2023-07-08T09:13:22;22.50;1.00
8402;DHT22;4238;48.404;9.498;2023-07-08T09:15:57;22.40;1.00
8402;DHT22;4238;48.404;9.498;2023-07-08T09:18:29;22.40;1.00
8402;DHT22;4238;48.404;9.498;2023-07-08T09:21:01;22.30;1.00
8402;DHT22;4238;48.404;9.498;2023-07-08T09:23:35;22.20;1.00
8402;DHT22;4238;48.404;9.498;2023-07-08T09:26:09;22.20;1.00
8402;DHT22;4238;48.404;9.498;2023-07-08T09:28:39;22.20;34.00
8402;DHT22;4238;48.404;9.498;2023-07-08T09:31:09;22.10;1.00
8402;DHT22;4238;48.404;9.498;2023-07-08T09:33:38;22.00;34.00
8402;DHT22;4238;48.404;9.498;2023-07-08T09:36:17;22.20;99.90
8402;DHT22;4238;48.404;9.498;2023-07-08T09:38:49;22.20;99.90
8402;DHT22;4238;48.404;9.498;2023-07-08T09:41:29;22.30;99.90
8402;DHT22;4238;48.404;9.498;2023-07-08T09:44:13;22.10;22.10
8402;DHT22;4238;48.404;9.498;2023-07-08T09:46:40;22.10;99.90
8402;DHT22;4238;48.404;9.498;2023-07-08T09:49:22;22.10;99.90
8402;DHT22;4238;48.404;9.498;2023-07-08T09:51:50;22.30;99.90
8402;DHT22;4238;48.404;9.498;2023-07-08T09:54:21;22.30;99.90
8402;DHT22;4238;48.404;9.498;2023-07-08T09:56:58;22.30;99.90
8402;DHT22;4238;48.404;9.498;2023-07-08T09:59:30;22.40;99.90
8402;DHT22;4238;48.404;9.498;2023-07-08T10:02:02;22.50;99.90
8402;DHT22;4238;48.404;9.498;2023-07-08T10:04:30;22.70;99.90
8402;DHT22;4238;48.404;9.498;2023-07-08T10:06:59;22.90;99.90
8402;DHT22;4238;48.404;9.498;2023-07-08T10:09:27;23.00;99.90
8402;DHT22;4238;48.404;9.498;2023-07-08T10:11:58;23.20;69.60
8402;DHT22;4238;48.404;9.498;2023-07-08T10:14:31;23.80;99.90
8402;DHT22;4238;48.404;9.498;2023-07-08T10:17:01;24.20;44.70
8402;DHT22;4238;48.404;9.498;2023-07-08T10:19:28;24.50;1.00
8402;DHT22;4238;48.404;9.498;2023-07-08T10:22:08;25.00;1.00
8402;DHT22;4238;48.404;9.498;2023-07-08T10:24:55;25.00;99.90
8402;DHT22;4238;48.404;9.498;2023-07-08T10:27:32;25.00;1.00
8402;DHT22;4238;48.404;9.498;2023-07-08T10:30:19;25.20;99.90
8402;DHT22;4238;48.404;9.498;2023-07-08T10:35:42;25.70;99.90
8402;DHT22;4238;48.404;9.498;2023-07-08T10:38:23;25.80;99.90
8402;DHT22;4238;48.404;9.498;2023-07-08T10:41:00;26.10;99.90
8402;DHT22;4238;48.404;9.498;2023-07-08T10:43:42;25.90;99.90
8402;DHT22;4238;48.404;9.498;2023-07-08T10:46:20;26.00;99.90
8402;DHT22;4238;48.404;9.498;2023-07-08T10:48:57;26.40;99.90
8402;DHT22;4238;48.404;9.498;2023-07-08T10:51:32;27.00;99.90
8402;DHT22;4238;48.404;9.498;2023-07-08T10:54:32;27.50;99.90
8402;DHT22;4238;48.404;9.498;2023-07-08T10:57:11;27.90;1.00
8402;DHT22;4238;48.404;9.498;2023-07-08T10:59:50;28.20;1.00
8402;DHT22;4238;48.404;9.498;2023-07-08T11:02:53;28.20;1.00
8402;DHT22;4238;48.404;9.498;2023-07-08T11:05:31;28.10;1.00
8402;DHT22;4238;48.404;9.498;2023-07-08T11:08:03;28.50;1.00
8402;DHT22;4238;48.404;9.498;2023-07-08T11:10:38;28.80;1.00
8402;DHT22;4238;48.404;9.498;2023-07-08T11:13:13;29.20;1.00
8402;DHT22;4238;48.404;9.498;2023-07-08T11:15:45;29.40;1.00
8402;DHT22;4238;48.404;9.498;2023-07-08T11:18:16;29.70;1.00
8402;DHT22;4238;48.404;9.498;2023-07-08T11:20:50;29.80;1.00
8402;DHT22;4238;48.404;9.498;2023-07-08T11:23:25;29.60;1.00
8402;DHT22;4238;48.404;9.498;2023-07-08T11:28:46;29.50;1.00
8402;DHT22;4238;48.404;9.498;2023-07-08T11:31:14;29.40;1.00
8402;DHT22;4238;48.404;9.498;2023-07-08T11:33:43;29.60;1.00
8402;DHT22;4238;48.404;9.498;2023-07-08T11:36:11;30.00;99.90
8402;DHT22;4238;48.404;9.498;2023-07-08T11:38:47;29.20;99.90
8402;DHT22;4238;48.404;9.498;2023-07-08T11:41:16;29.20;99.90
8402;DHT22;4238;48.404;9.498;2023-07-08T11:43:48;29.30;99.90
8402;DHT22;4238;48.404;9.498;2023-07-08T11:46:18;29.40;99.90
8402;DHT22;4238;48.404;9.498;2023-07-08T11:48:47;29.50;99.90
8402;DHT22;4238;48.404;9.498;2023-07-08T11:51:18;29.10;99.90
8402;DHT22;4238;48.404;9.498;2023-07-08T11:53:49;29.10;99.90
8402;DHT22;4238;48.404;9.498;2023-07-08T11:56:21;28.90;99.90
8402;DHT22;4238;48.404;9.498;2023-07-08T12:01:41;29.20;99.90
8402;DHT22;4238;48.404;9.498;2023-07-08T12:04:26;29.70;99.90
8402;DHT22;4238;48.404;9.498;2023-07-08T12:07:10;29.90;99.90
8402;DHT22;4238;48.404;9.498;2023-07-08T12:09:39;30.00;99.90
8402;DHT22;4238;48.404;9.498;2023-07-08T12:12:16;29.70;99.90
8402;DHT22;4238;48.404;9.498;2023-07-08T12:14:46;30.00;99.90
8402;DHT22;4238;48.404;9.498;2023-07-08T12:17:14;29.40;99.90
8402;DHT22;4238;48.404;9.498;2023-07-08T12:19:43;29.60;99.90
8402;DHT22;4238;48.404;9.498;2023-07-08T12:22:11;29.50;99.90
8402;DHT22;4238;48.404;9.498;2023-07-08T12:24:38;29.70;99.90
8402;DHT22;4238;48.404;9.498;2023-07-08T12:27:07;29.90;99.90
8402;DHT22;4238;48.404;9.498;2023-07-08T12:29:35;30.20;99.90
8402;DHT22;4238;48.404;9.498;2023-07-08T12:32:04;30.20;99.90
8402;DHT22;4238;48.404;9.498;2023-07-08T12:34:31;30.00;99.90
8402;DHT22;4238;48.404;9.498;2023-07-08T12:36:59;30.00;99.90
8402;DHT22;4238;48.404;9.498;2023-07-08T12:39:26;30.30;99.90
8402;DHT22;4238;48.404;9.498;2023-07-08T12:41:52;30.40;99.90
8402;DHT22;4238;48.404;9.498;2023-07-08T12:44:22;30.50;99.90
8402;DHT22;4238;48.404;9.498;2023-07-08T12:46:53;30.20;99.90
8402;DHT22;4238;48.404;9.498;2023-07-08T12:49:21;29.90;99.90
8402;DHT22;4238;48.404;9.498;2023-07-08T12:51:52;30.20;99.90
8402;DHT22;4238;48.404;9.498;2023-07-08T12:54:19;30.50;99.90
8402;DHT22;4238;48.404;9.498;2023-07-08T12:56:47;30.60;99.90
8402;DHT22;4238;48.404;9.498;2023-07-08T12:59:18;30.70;99.90
8402;DHT22;4238;48.404;9.498;2023-07-08T13:01:46;30.40;99.90
8402;DHT22;4238;48.404;9.498;2023-07-08T13:04:14;29.90;99.90
8402;DHT22;4238;48.404;9.498;2023-07-08T13:06:43;29.40;99.90
8402;DHT22;4238;48.404;9.498;2023-07-08T13:09:26;29.20;99.90
8402;DHT22;4238;48.404;9.498;2023-07-08T13:11:56;29.20;99.90
8402;DHT22;4238;48.404;9.498;2023-07-08T13:14:24;29.10;99.90
8402;DHT22;4238;48.404;9.498;2023-07-08T13:16:52;29.40;99.90
8402;DHT22;4238;48.404;9.498;2023-07-08T13:19:19;29.50;99.90
8402;DHT22;4238;48.404;9.498;2023-07-08T13:21:47;29.70;99.90
8402;DHT22;4238;48.404;9.498;2023-07-08T13:24:14;30.00;99.90
8402;DHT22;4238;48.404;9.498;2023-07-08T13:26:46;29.50;99.90
8402;DHT22;4238;48.404;9.498;2023-07-08T13:29:14;29.40;99.90
8402;DHT22;4238;48.404;9.498;2023-07-08T13:31:47;29.00;99.90
8402;DHT22;4238;48.404;9.498;2023-07-08T13:34:17;29.20;99.90
8402;DHT22;4238;48.404;9.498;2023-07-08T13:36:45;29.60;99.90
8402;DHT22;4238;48.404;9.498;2023-07-08T13:39:20;29.90;99.90
8402;DHT22;4238;48.404;9.498;2023-07-08T13:41:49;30.20;99.90
8402;DHT22;4238;48.404;9.498;2023-07-08T13:44:16;30.40;99.90
8402;DHT22;4238;48.404;9.498;2023-07-08T13:46:45;30.10;99.90
8402;DHT22;4238;48.404;9.498;2023-07-08T13:49:15;29.90;99.90
8402;DHT22;4238;48.404;9.498;2023-07-08T13:51:42;29.90;99.90
8402;DHT22;4238;48.404;9.498;2023-07-08T13:54:20;30.10;99.90
8402;DHT22;4238;48.404;9.498;2023-07-08T13:56:48;30.00;99.90
8402;DHT22;4238;48.404;9.498;2023-07-08T13:59:19;30.20;99.90
8402;DHT22;4238;48.404;9.498;2023-07-08T14:01:48;30.50;99.90
8402;DHT22;4238;48.404;9.498;2023-07-08T14:04:19;30.50;99.90
8402;DHT22;4238;48.404;9.498;2023-07-08T14:06:47;30.50;99.90
8402;DHT22;4238;48.404;9.498;2023-07-08T14:09:17;30.60;99.90
8402;DHT22;4238;48.404;9.498;2023-07-08T14:11:45;30.60;99.90
8402;DHT22;4238;48.404;9.498;2023-07-08T14:14:12;30.50;99.90
8402;DHT22;4238;48.404;9.498;2023-07-08T14:16:41;30.20;99.90
8402;DHT22;4238;48.404;9.498;2023-07-08T14:19:13;30.40;99.90
8402;DHT22;4238;48.404;9.498;2023-07-08T14:21:41;30.40;99.90
8402;DHT22;4238;48.404;9.498;2023-07-08T14:24:10;30.30;99.90
8402;DHT22;4238;48.404;9.498;2023-07-08T14:26:41;30.30;99.90
8402;DHT22;4238;48.404;9.498;2023-07-08T14:29:09;30.00;99.90
8402;DHT22;4238;48.404;9.498;2023-07-08T14:31:36;29.70;99.90
8402;DHT22;4238;48.404;9.498;2023-07-08T14:34:06;29.50;99.90
8402;DHT22;4238;48.404;9.498;2023-07-08T14:36:33;29.40;99.90
8402;DHT22;4238;48.404;9.498;2023-07-08T14:39:01;29.40;99.90
8402;DHT22;4238;48.404;9.498;2023-07-08T14:41:34;29.70;99.90
8402;DHT22;4238;48.404;9.498;2023-07-08T14:44:04;29.50;99.90
8402;DHT22;4238;48.404;9.498;2023-07-08T14:46:35;29.50;99.90
8402;DHT22;4238;48.404;9.498;2023-07-08T14:49:04;29.50;99.90
8402;DHT22;4238;48.404;9.498;2023-07-08T14:51:35;29.70;99.90
8402;DHT22;4238;48.404;9.498;2023-07-08T14:54:02;29.80;99.90
8402;DHT22;4238;48.404;9.498;2023-07-08T14:56:29;29.90;99.90
8402;DHT22;4238;48.404;9.498;2023-07-08T14:58:55;29.90;99.90
8402;DHT22;4238;48.404;9.498;2023-07-08T15:01:24;29.90;99.90
8402;DHT22;4238;48.404;9.498;2023-07-08T15:03:55;29.90;99.90
8402;DHT22;4238;48.404;9.498;2023-07-08T15:06:23;29.70;99.90
8402;DHT22;4238;48.404;9.498;2023-07-08T15:08:50;29.20;99.90
8402;DHT22;4238;48.404;9.498;2023-07-08T15:11:18;29.20;99.90
8402;DHT22;4238;48.404;9.498;2023-07-08T15:13:45;29.20;99.90
8402;DHT22;4238;48.404;9.498;2023-07-08T15:16:14;29.10;99.90
8402;DHT22;4238;48.404;9.498;2023-07-08T15:18:43;29.20;99.90
8402;DHT22;4238;48.404;9.498;2023-07-08T15:21:10;29.40;99.90
8402;DHT22;4238;48.404;9.498;2023-07-08T15:23:38;29.20;99.90
8402;DHT22;4238;48.404;9.498;2023-07-08T15:26:05;29.20;99.90
8402;DHT22;4238;48.404;9.498;2023-07-08T15:28:40;29.20;99.90
8402;DHT22;4238;48.404;9.498;2023-07-08T15:31:14;29.30;99.90
8402;DHT22;4238;48.404;9.498;2023-07-08T15:33:43;29.40;99.90
8402;DHT22;4238;48.404;9.498;2023-07-08T15:36:10;29.20;99.90
8402;DHT22;4238;48.404;9.498;2023-07-08T15:38:38;29.10;99.90
8402;DHT22;4238;48.404;9.498;2023-07-08T15:41:08;28.90;99.90
8402;DHT22;4238;48.404;9.498;2023-07-08T15:43:36;29.00;99.90
8402;DHT22;4238;48.404;9.498;2023-07-08T15:46:03;29.10;99.90
8402;DHT22;4238;48.404;9.498;2023-07-08T15:48:30;28.90;99.90
8402;DHT22;4238;48.404;9.498;2023-07-08T15:50:58;29.00;99.90
8402;DHT22;4238;48.404;9.498;2023-07-08T15:53:25;28.90;99.90
8402;DHT22;4238;48.404;9.498;2023-07-08T15:55:52;28.90;99.90
8402;DHT22;4238;48.404;9.498;2023-07-08T15:58:24;29.00;99.90
8402;DHT22;4238;48.404;9.498;2023-07-08T16:00:53;29.00;99.90
8402;DHT22;4238;48.404;9.498;2023-07-08T16:03:22;29.00;99.90
8402;DHT22;4238;48.404;9.498;2023-07-08T16:05:50;29.10;99.90
8402;DHT22;4238;48.404;9.498;2023-07-08T16:08:19;29.20;99.90
8402;DHT22;4238;48.404;9.498;2023-07-08T16:10:49;29.20;99.90
8402;DHT22;4238;48.404;9.498;2023-07-08T16:13:21;29.10;99.90
8402;DHT22;4238;48.404;9.498;2023-07-08T16:15:49;28.90;99.90
8402;DHT22;4238;48.404;9.498;2023-07-08T16:18:16;28.80;99.90
8402;DHT22;4238;48.404;9.498;2023-07-08T16:20:43;28.80;99.90
8402;DHT22;4238;48.404;9.498;2023-07-08T16:23:10;28.80;99.90
8402;DHT22;4238;48.404;9.498;2023-07-08T16:25:41;28.80;99.90
8402;DHT22;4238;48.404;9.498;2023-07-08T16:28:16;28.80;99.90
8402;DHT22;4238;48.404;9.498;2023-07-08T16:30:44;28.80;99.90
8402;DHT22;4238;48.404;9.498;2023-07-08T16:33:11;28.70;99.90
8402;DHT22;4238;48.404;9.498;2023-07-08T16:35:38;28.60;99.90
8402;DHT22;4238;48.404;9.498;2023-07-08T16:38:07;28.70;99.90
8402;DHT22;4238;48.404;9.498;2023-07-08T16:40:34;28.50;99.90
8402;DHT22;4238;48.404;9.498;2023-07-08T16:43:03;28.20;99.90
8402;DHT22;4238;48.404;9.498;2023-07-08T16:45:29;28.20;99.90
8402;DHT22;4238;48.404;9.498;2023-07-08T16:47:56;28.30;99.90
8402;DHT22;4238;48.404;9.498;2023-07-08T16:50:26;28.40;99.90
8402;DHT22;4238;48.404;9.498;2023-07-08T16:52:54;28.40;99.90
8402;DHT22;4238;48.404;9.498;2023-07-08T16:55:22;28.30;99.90
8402;DHT22;4238;48.404;9.498;2023-07-08T16:57:49;28.30;99.90
8402;DHT22;4238;48.404;9.498;2023-07-08T17:00:19;28.30;99.90
8402;DHT22;4238;48.404;9.498;2023-07-08T17:02:47;28.10;99.90
8402;DHT22;4238;48.404;9.498;2023-07-08T17:05:20;28.10;99.90
8402;DHT22;4238;48.404;9.498;2023-07-08T17:07:48;28.00;99.90
8402;DHT22;4238;48.404;9.498;2023-07-08T17:10:16;28.00;99.90
8402;DHT22;4238;48.404;9.498;2023-07-08T17:12:43;27.90;99.90
8402;DHT22;4238;48.404;9.498;2023-07-08T17:15:11;27.90;99.90
8402;DHT22;4238;48.404;9.498;2023-07-08T17:17:42;27.90;99.90
8402;DHT22;4238;48.404;9.498;2023-07-08T17:20:18;27.90;99.90
8402;DHT22;4238;48.404;9.498;2023-07-08T17:22:46;27.90;99.90
8402;DHT22;4238;48.404;9.498;2023-07-08T17:25:15;27.80;99.90
8402;DHT22;4238;48.404;9.498;2023-07-08T17:27:42;27.60;99.90
8402;DHT22;4238;48.404;9.498;2023-07-08T17:30:11;27.60;99.90
8402;DHT22;4238;48.404;9.498;2023-07-08T17:32:40;27.50;99.90
8402;DHT22;4238;48.404;9.498;2023-07-08T17:35:10;27.50;99.90
8402;DHT22;4238;48.404;9.498;2023-07-08T17:37:39;27.50;99.90
8402;DHT22;4238;48.404;9.498;2023-07-08T17:40:13;27.40;99.90
8402;DHT22;4238;48.404;9.498;2023-07-08T17:42:40;27.40;99.90
8402;DHT22;4238;48.404;9.498;2023-07-08T17:45:08;27.20;99.90
8402;DHT22;4238;48.404;9.498;2023-07-08T17:47:36;27.20;99.90
8402;DHT22;4238;48.404;9.498;2023-07-08T17:50:16;27.00;99.90
8402;DHT22;4238;48.404;9.498;2023-07-08T17:52:43;26.90;99.90
8402;DHT22;4238;48.404;9.498;2023-07-08T17:55:10;26.90;99.90
8402;DHT22;4238;48.404;9.498;2023-07-08T17:57:38;26.90;99.90
8402;DHT22;4238;48.404;9.498;2023-07-08T18:00:13;26.80;99.90
8402;DHT22;4238;48.404;9.498;2023-07-08T18:02:40;26.90;99.90
8402;DHT22;4238;48.404;9.498;2023-07-08T18:05:18;27.20;99.90
8402;DHT22;4238;48.404;9.498;2023-07-08T18:07:46;28.00;99.90
8402;DHT22;4238;48.404;9.498;2023-07-08T18:10:15;27.80;99.90
8402;DHT22;4238;48.404;9.498;2023-07-08T18:12:43;27.50;99.90
8402;DHT22;4238;48.404;9.498;2023-07-08T18:15:18;27.30;99.90
8402;DHT22;4238;48.404;9.498;2023-07-08T18:17:46;27.00;99.90
8402;DHT22;4238;48.404;9.498;2023-07-08T18:20:14;26.90;99.90
8402;DHT22;4238;48.404;9.498;2023-07-08T18:22:44;26.80;99.90
8402;DHT22;4238;48.404;9.498;2023-07-08T18:25:14;26.60;99.90
8402;DHT22;4238;48.404;9.498;2023-07-08T18:27:42;26.50;99.90
8402;DHT22;4238;48.404;9.498;2023-07-08T18:30:11;26.40;99.90
8402;DHT22;4238;48.404;9.498;2023-07-08T18:32:38;26.30;99.90
8402;DHT22;4238;48.404;9.498;2023-07-08T18:35:18;26.10;99.90
8402;DHT22;4238;48.404;9.498;2023-07-08T18:37:45;26.10;99.90
8402;DHT22;4238;48.404;9.498;2023-07-08T18:45:21;25.80;99.90
8402;DHT22;4238;48.404;9.498;2023-07-08T18:47:48;25.60;99.90
8402;DHT22;4238;48.404;9.498;2023-07-08T18:50:17;25.30;99.90
8402;DHT22;4238;48.404;9.498;2023-07-08T18:52:44;25.10;99.90
8402;DHT22;4238;48.404;9.498;2023-07-08T18:55:13;24.90;99.90
8402;DHT22;4238;48.404;9.498;2023-07-08T18:57:41;24.60;99.90
8402;DHT22;4238;48.404;9.498;2023-07-08T19:00:10;24.50;99.90
8402;DHT22;4238;48.404;9.498;2023-07-08T19:02:47;24.40;1.00
8402;DHT22;4238;48.404;9.498;2023-07-08T19:05:17;24.40;1.00
8402;DHT22;4238;48.404;9.498;2023-07-08T19:07:45;24.30;1.00
8402;DHT22;4238;48.404;9.498;2023-07-08T19:10:13;24.20;1.00
8402;DHT22;4238;48.404;9.498;2023-07-08T19:12:42;24.10;1.00
8402;DHT22;4238;48.404;9.498;2023-07-08T19:15:17;23.90;1.00
8402;DHT22;4238;48.404;9.498;2023-07-08T19:17:44;23.50;1.00
8402;DHT22;4238;48.404;9.498;2023-07-08T19:20:11;23.20;1.00
8402;DHT22;4238;48.404;9.498;2023-07-08T19:22:40;23.20;1.00
8402;DHT22;4238;48.404;9.498;2023-07-08T19:25:15;22.90;1.00
8402;DHT22;4238;48.404;9.498;2023-07-08T19:27:42;22.80;69.40
8402;DHT22;4238;48.404;9.498;2023-07-08T19:30:11;22.60;99.90
8402;DHT22;4238;48.404;9.498;2023-07-08T19:32:39;22.50;99.90
8402;DHT22;4238;48.404;9.498;2023-07-08T19:35:12;22.60;99.90
8402;DHT22;4238;48.404;9.498;2023-07-08T19:37:40;22.60;99.90
8402;DHT22;4238;48.404;9.498;2023-07-08T19:40:10;22.50;1.00
8402;DHT22;4238;48.404;9.498;2023-07-08T19:42:38;22.40;1.00
8402;DHT22;4238;48.404;9.498;2023-07-08T19:45:10;22.20;99.90
8402;DHT22;4238;48.404;9.498;2023-07-08T19:47:40;22.00;1.00
8402;DHT22;4238;48.404;9.498;2023-07-08T19:50:09;21.80;99.90
8402;DHT22;4238;48.404;9.498;2023-07-08T19:52:36;21.60;1.00
8402;DHT22;4238;48.404;9.498;2023-07-08T19:55:06;21.50;1.00
8402;DHT22;4238;48.404;9.498;2023-07-08T19:57:43;21.30;99.90
8402;DHT22;4238;48.404;9.498;2023-07-08T20:00:27;21.20;99.90
8402;DHT22;4238;48.404;9.498;2023-07-08T20:02:56;21.10;99.90
8402;DHT22;4238;48.404;9.498;2023-07-08T20:05:26;21.00;1.00
8402;DHT22;4238;48.404;9.498;2023-07-08T20:07:56;20.90;42.40
8402;DHT22;4238;48.404;9.498;2023-07-08T20:10:27;20.80;1.00
8402;DHT22;4238;48.404;9.498;2023-07-08T20:12:55;20.90;1.00
8402;DHT22;4238;48.404;9.498;2023-07-08T20:15:23;20.90;99.90
8402;DHT22;4238;48.404;9.498;2023-07-08T20:17:51;20.90;1.00
8402;DHT22;4238;48.404;9.498;2023-07-08T20:20:20;20.90;1.00
8402;DHT22;4238;48.404;9.498;2023-07-08T20:22:47;21.00;1.00
8402;DHT22;4238;48.404;9.498;2023-07-08T20:25:15;21.00;21.80
8402;DHT22;4238;48.404;9.498;2023-07-08T20:27:45;21.00;99.90
8402;DHT22;4238;48.404;9.498;2023-07-08T20:30:17;20.90;99.90
8402;DHT22;4238;48.404;9.498;2023-07-08T20:32:44;20.80;99.90
8402;DHT22;4238;48.404;9.498;2023-07-08T20:35:12;20.60;38.70
8402;DHT22;4238;48.404;9.498;2023-07-08T20:37:39;20.40;91.90